Time;durP1;ratioP1;P1;durP2;ratioP2;P2;SDS_P1;SDS_P2;PMS_P1;PMS_P2;Temp;Humidity;BMP_temperature;BMP_pressure;BME280_temperature;BME280_humidity;BME280_pressure;Samples;Min_cycle;Max_cycle;Signal;HPM_P1;HPM_P2
2022/04/16 00:00:06;;;;;;;20.90;17.98;;;11.90;97.10;;;;;;5053302;28;20036;-55
2022/04/16 09:45:32;;;;;;;;;;;12.90;96.80;;;;;;5071506;28;20445;-56
2022/04/16 09:47:59;;;;;;;48.80;39.28;;;12.90;96.70;;;;;;5072998;28;20317;-56
2022/04/16 09:50:26;;;;;;;48.80;41.75;;;13.00;96.70;;;;;;5050828;28;20064;-55
2022/04/16 09:52:53;;;;;;;49.58;40.45;;;13.00;96.80;;;;;;5058556;28;20043;-54
2022/04/16 09:55:21;;;;;;;44.22;39.40;;;13.10;97.10;;;;;;5069858;28;20407;-55
2022/04/16 09:57:47;;;;;;;48.70;39.45;;;13.30;96.40;;;;;;5069779;28;20041;-57
2022/04/16 10:00:19;;;;;;;48.40;38.03;;;13.40;96.40;;;;;;5055405;28;20073;-54
2022/04/16 10:02:46;;;;;;;42.00;36.10;;;13.50;96.20;;;;;;5049471;28;20053;-55
2022/04/16 10:05:13;;;;;;;38.88;33.22;;;13.60;96.30;;;;;;5050470;28;20052;-57
2022/04/16 10:07:40;;;;;;;36.25;32.15;;;13.80;94.80;;;;;;5050715;28;20075;-53
2022/04/16 10:10:17;;;;;;;47.28;35.55;;;13.80;95.70;;;;;;5050504;28;20037;-54
2022/04/16 10:13:00;;;;;;;38.45;33.72;;;13.90;95.30;;;;;;5050410;28;20055;-55
2022/04/16 10:15:27;;;;;;;36.05;32.25;;;14.00;94.90;;;;;;5059160;28;20040;-56
2022/04/16 10:17:54;;;;;;;34.97;31.13;;;14.10;94.60;;;;;;5069469;28;20047;-54
2022/04/16 10:20:20;;;;;;;35.03;30.20;;;14.10;93.90;;;;;;5069420;28;20075;-52
2022/04/16 10:22:47;;;;;;;36.75;30.75;;;14.20;94.20;;;;;;5067011;28;20033;-55
2022/04/16 10:25:14;;;;;;;36.28;30.42;;;14.20;93.80;;;;;;5069230;28;20041;-56
2022/04/16 10:27:41;;;;;;;37.05;30.63;;;14.30;94.00;;;;;;5068401;28;20068;-57
2022/04/16 10:30:10;;;;;;;35.80;29.83;;;14.40;93.60;;;;;;5069285;28;20041;-55
2022/04/16 10:32:39;;;;;;;31.40;28.02;;;14.40;93.80;;;;;;5059512;28;20045;-51
2022/04/16 10:35:05;;;;;;;31.48;28.08;;;14.40;93.50;;;;;;5055067;28;20381;-53
2022/04/16 10:37:32;;;;;;;30.40;27.10;;;14.40;93.20;;;;;;5053812;28;20434;-57
2022/04/16 10:39:59;;;;;;;28.95;25.95;;;14.50;93.60;;;;;;5051871;28;20045;-53
2022/04/16 10:42:25;;;;;;;30.65;25.52;;;14.50;92.50;;;;;;5059702;28;20100;-54
2022/04/16 10:45:12;;;;;;;27.83;24.83;;;14.60;92.80;;;;;;5067620;28;20074;-55
2022/04/16 10:47:41;;;;;;;28.48;25.42;;;14.70;92.60;;;;;;5057500;28;20041;-54
2022/04/16 10:50:08;;;;;;;27.85;24.80;;;14.80;92.30;;;;;;5048467;28;20048;-55
2022/04/16 10:52:35;;;;;;;25.45;22.83;;;14.80;91.80;;;;;;5064810;28;20493;-57
2022/04/16 10:55:02;;;;;;;24.95;21.73;;;14.80;91.30;;;;;;5065487;28;20139;-52
2022/04/16 10:57:28;;;;;;;24.40;21.30;;;14.80;91.40;;;;;;5040832;28;20455;-53
2022/04/16 10:59:56;;;;;;;27.30;21.40;;;14.90;91.90;;;;;;5055136;28;20065;-55
2022/04/16 11:02:24;;;;;;;20.77;18.58;;;15.10;91.40;;;;;;5049204;28;20552;-51
2022/04/16 11:04:50;;;;;;;24.55;19.73;;;15.10;90.60;;;;;;5054605;28;20049;-56
2022/04/16 11:07:17;;;;;;;21.80;19.45;;;15.20;90.20;;;;;;5045253;28;20099;-54
2022/04/16 11:09:47;;;;;;;21.23;18.13;;;15.10;89.00;;;;;;5049411;28;20048;-54
2022/04/16 11:12:14;;;;;;;19.05;17.05;;;15.10;89.10;;;;;;5035835;28;20041;-57
2022/04/16 11:14:40;;;;;;;19.30;14.93;;;15.10;89.60;;;;;;5034501;28;20049;-56
2022/04/16 11:17:07;;;;;;;18.77;16.30;;;15.30;86.70;;;;;;5043731;28;20091;-57
2022/04/16 11:19:34;;;;;;;19.90;15.45;;;15.30;85.00;;;;;;5036318;28;20057;-53
2022/04/16 11:22:00;;;;;;;19.63;16.33;;;15.50;86.60;;;;;;5035643;28;20088;-53
2022/04/16 11:24:27;;;;;;;17.50;15.02;;;15.50;84.30;;;;;;5039078;28;20045;-57
2022/04/16 11:35:11;;;;;;;;;;;15.80;85.10;;;;;;5035274;28;20044;-57
2022/04/16 11:37:38;;;;;;;18.40;16.05;;;15.90;83.20;;;;;;5035243;28;20040;-58
2022/04/16 11:40:05;;;;;;;18.45;15.93;;;15.80;82.70;;;;;;5035178;28;20377;-56
2022/04/16 11:42:32;;;;;;;18.80;16.80;;;15.80;84.20;;;;;;5035318;28;20041;-53
2022/04/16 11:44:59;;;;;;;18.77;16.98;;;15.80;82.50;;;;;;5036361;28;20057;-56
2022/04/16 11:47:27;;;;;;;23.60;19.73;;;15.80;83.50;;;;;;5054251;28;20102;-54
2022/04/16 11:49:53;;;;;;;21.83;19.50;;;15.80;84.60;;;;;;5054240;28;20045;-57
2022/04/16 11:52:20;;;;;;;22.20;20.00;;;15.80;85.50;;;;;;5038826;28;20037;-55
2022/04/16 11:54:47;;;;;;;23.77;21.27;;;15.90;85.90;;;;;;5036448;28;20531;-51
2022/04/16 11:57:14;;;;;;;23.00;20.60;;;15.90;84.50;;;;;;5035209;28;20461;-51
2022/04/16 11:59:41;;;;;;;25.27;21.98;;;15.90;85.90;;;;;;5039774;28;20051;-55
2022/04/16 12:02:08;;;;;;;27.25;24.35;;;16.00;87.10;;;;;;5054425;28;20090;-55
2022/04/16 12:04:35;;;;;;;26.75;24.02;;;16.00;87.90;;;;;;5054253;28;20040;-55
2022/04/16 12:07:02;;;;;;;26.25;23.42;;;16.00;88.00;;;;;;5053408;28;20529;-53
2022/04/16 12:09:28;;;;;;;26.60;23.67;;;16.00;88.60;;;;;;5054090;28;20071;-57
2022/04/16 12:11:55;;;;;;;29.70;24.88;;;16.10;87.20;;;;;;5036573;28;20045;-55
2022/04/16 12:14:24;;;;;;;27.67;24.55;;;15.90;86.70;;;;;;5035024;28;20475;-52
2022/04/16 12:16:51;;;;;;;25.95;23.00;;;15.90;87.60;;;;;;5035532;28;20049;-53
2022/04/16 12:19:18;;;;;;;25.85;23.33;;;16.00;87.30;;;;;;5054063;28;20052;-53
2022/04/16 12:21:45;;;;;;;25.85;23.15;;;16.00;87.40;;;;;;5053990;28;20467;-53
2022/04/16 12:24:11;;;;;;;29.00;25.05;;;16.00;86.30;;;;;;5053806;28;20475;-51
2022/04/16 12:26:38;;;;;;;24.88;22.33;;;16.00;87.20;;;;;;5053924;28;20033;-52
2022/04/16 12:29:05;;;;;;;24.45;21.98;;;15.90;87.50;;;;;;5052903;28;20068;-55
2022/04/16 12:31:31;;;;;;;25.42;22.75;;;16.00;86.20;;;;;;5053541;28;20132;-53
2022/04/16 12:33:58;;;;;;;24.30;21.90;;;16.00;86.20;;;;;;5053765;28;20120;-53
2022/04/16 12:36:25;;;;;;;25.02;22.35;;;16.00;86.00;;;;;;5053570;28;20045;-56
2022/04/16 12:38:54;;;;;;;24.48;21.98;;;16.00;87.60;;;;;;5053681;28;20041;-50
2022/04/16 12:41:21;;;;;;;25.98;22.00;;;16.00;88.00;;;;;;5053578;28;20128;-52
2022/04/16 12:43:48;;;;;;;25.33;22.60;;;16.10;86.00;;;;;;5053353;28;20470;-52
2022/04/16 12:46:15;;;;;;;26.00;23.25;;;16.10;87.20;;;;;;5052605;28;20052;-56
2022/04/16 12:48:41;;;;;;;26.67;23.00;;;16.10;87.00;;;;;;5053804;28;20063;-57
2022/04/16 12:51:08;;;;;;;25.15;22.55;;;16.10;86.50;;;;;;5052372;28;20045;-54
2022/04/16 12:53:35;;;;;;;23.92;21.55;;;16.10;86.80;;;;;;5052157;28;20054;-54
2022/04/16 12:56:01;;;;;;;26.48;22.35;;;16.20;86.90;;;;;;5053691;28;20498;-52
2022/04/16 12:58:28;;;;;;;25.13;22.42;;;16.20;86.80;;;;;;5053330;28;20044;-56
2022/04/16 13:00:55;;;;;;;23.58;21.25;;;16.10;86.00;;;;;;5053362;28;20075;-52
2022/04/16 13:03:22;;;;;;;27.20;22.98;;;16.20;86.00;;;;;;5053057;28;20053;-57
2022/04/16 13:05:49;;;;;;;24.77;22.23;;;16.30;86.30;;;;;;5053072;28;20578;-54
2022/04/16 13:08:16;;;;;;;23.13;20.73;;;16.30;85.90;;;;;;5053295;28;20037;-55
2022/04/16 13:10:43;;;;;;;26.58;23.73;;;16.30;85.90;;;;;;5053247;28;20120;-54
2022/04/16 13:13:10;;;;;;;26.35;23.67;;;16.30;86.50;;;;;;5053249;28;20563;-57
2022/04/16 13:15:37;;;;;;;24.33;21.75;;;16.30;87.20;;;;;;5053059;28;20063;-53
2022/04/16 13:18:05;;;;;;;24.20;21.60;;;16.40;86.20;;;;;;5052727;28;20406;-54
2022/04/16 13:20:31;;;;;;;23.20;20.67;;;16.40;86.40;;;;;;5037256;28;20057;-55
2022/04/16 13:22:58;;;;;;;27.63;22.65;;;16.40;84.90;;;;;;5050015;28;20051;-53
2022/04/16 13:25:25;;;;;;;28.25;25.25;;;16.50;86.60;;;;;;5038539;28;20038;-52
2022/04/16 13:27:52;;;;;;;29.02;24.05;;;16.50;85.60;;;;;;5033904;28;20041;-52
2022/04/16 13:30:18;;;;;;;27.77;24.85;;;16.50;86.20;;;;;;5033686;28;20065;-54
2022/04/16 13:32:45;;;;;;;27.50;24.02;;;16.50;86.90;;;;;;5033459;28;20042;-55
2022/04/16 13:35:12;;;;;;;29.08;26.08;;;16.60;86.30;;;;;;5033815;28;20128;-52
2022/04/16 13:37:38;;;;;;;30.08;25.88;;;16.60;86.70;;;;;;5033479;28;20048;-55
2022/04/16 13:42:50;;;;;;;28.80;25.77;;;16.60;84.30;;;;;;5033868;28;20056;-56
2022/04/16 13:45:17;;;;;;;30.33;27.00;;;16.60;86.00;;;;;;5042800;28;20057;-54
2022/04/16 13:47:44;;;;;;;29.58;26.45;;;16.60;85.80;;;;;;5056920;28;20086;-53
2022/04/16 13:50:10;;;;;;;29.10;26.13;;;16.70;86.30;;;;;;5052798;28;20039;-54
2022/04/16 13:52:37;;;;;;;31.70;28.00;;;16.70;85.40;;;;;;5052409;28;20460;-55
2022/04/16 13:55:04;;;;;;;31.02;27.60;;;16.80;86.40;;;;;;5052680;28;20074;-54
2022/04/16 13:57:31;;;;;;;30.80;27.55;;;16.70;86.80;;;;;;5051316;28;20045;-57
2022/04/16 13:59:58;;;;;;;30.17;26.60;;;16.80;87.10;;;;;;5044345;28;20077;-57
2022/04/16 14:02:25;;;;;;;32.05;28.63;;;16.80;86.20;;;;;;5033553;28;20041;-56
2022/04/16 14:07:37;;;;;;;30.20;27.02;;;16.70;86.80;;;;;;5044766;28;20049;-52
2022/04/16 14:10:04;;;;;;;29.67;26.50;;;16.80;86.60;;;;;;5052349;28;20072;-53
2022/04/16 14:12:31;;;;;;;32.30;27.50;;;16.90;86.60;;;;;;5052226;28;20404;-58
2022/04/16 14:14:57;;;;;;;31.40;27.58;;;16.90;86.50;;;;;;5052489;28;20069;-54
2022/04/16 14:17:24;;;;;;;29.15;25.45;;;16.90;86.60;;;;;;5051801;28;20448;-56
2022/04/16 14:19:51;;;;;;;28.88;25.85;;;16.80;87.10;;;;;;5052415;28;20064;-54
2022/04/16 14:22:18;;;;;;;30.27;27.08;;;16.80;87.10;;;;;;5051998;28;20458;-54
2022/04/16 14:24:44;;;;;;;34.00;28.38;;;16.70;87.40;;;;;;5051219;28;20459;-56
2022/04/16 14:27:13;;;;;;;30.67;26.63;;;16.60;87.50;;;;;;5052317;28;20037;-57
2022/04/16 14:29:40;;;;;;;30.30;27.02;;;16.60;88.20;;;;;;5052200;28;20041;-52
2022/04/16 14:32:07;;;;;;;32.03;27.58;;;16.70;88.00;;;;;;5054453;28;20523;-53
2022/04/16 14:34:34;;;;;;;32.08;28.00;;;16.70;87.70;;;;;;5056007;28;20071;-53
2022/04/16 14:37:01;;;;;;;30.40;27.05;;;16.80;88.00;;;;;;5054320;28;20408;-53
2022/04/16 14:39:28;;;;;;;30.83;27.60;;;16.80;87.40;;;;;;5051666;28;20077;-55
2022/04/16 14:41:55;;;;;;;33.08;27.35;;;16.70;87.50;;;;;;5036900;28;20111;-55
2022/04/16 14:44:22;;;;;;;30.33;27.00;;;16.70;87.50;;;;;;5035339;28;20209;-54
2022/04/16 14:46:49;;;;;;;30.77;27.45;;;16.70;88.00;;;;;;5042673;28;20049;-55
2022/04/16 14:49:15;;;;;;;29.58;26.48;;;16.70;88.10;;;;;;5055859;28;20064;-53
2022/04/16 14:51:51;;;;;;;33.28;26.88;;;16.80;87.10;;;;;;5039504;28;20104;-55
2022/04/16 14:54:18;;;;;;;29.52;26.15;;;16.80;87.60;;;;;;5036540;28;20045;-55
2022/04/16 14:56:45;;;;;;;29.73;26.33;;;16.80;87.10;;;;;;5036319;28;20442;-57
2022/04/16 14:59:11;;;;;;;27.90;24.90;;;16.70;87.20;;;;;;5036552;28;20078;-56
2022/04/16 15:01:38;;;;;;;29.63;26.15;;;16.90;88.00;;;;;;5049370;28;20049;-54
2022/04/16 15:04:05;;;;;;;30.45;26.33;;;17.00;87.40;;;;;;5055458;28;20551;-52
2022/04/16 15:06:32;;;;;;;28.42;25.30;;;17.10;86.90;;;;;;5054389;28;20049;-49
2022/04/16 15:08:59;;;;;;;30.20;27.00;;;17.10;86.70;;;;;;5055095;28;20127;-54
2022/04/16 15:11:26;;;;;;;32.55;26.38;;;17.10;85.90;;;;;;5055228;28;20056;-54
2022/04/16 15:13:52;;;;;;;31.02;27.40;;;17.20;86.20;;;;;;5054334;28;20037;-57
2022/04/16 15:16:19;;;;;;;32.30;28.90;;;17.20;86.00;;;;;;5055267;28;20059;-55
2022/04/16 15:18:46;;;;;;;32.25;28.73;;;17.10;85.80;;;;;;5054000;28;20041;-56
2022/04/16 15:21:12;;;;;;;29.00;25.85;;;17.00;86.80;;;;;;5054938;28;20064;-54
2022/04/16 15:23:39;;;;;;;29.02;25.92;;;17.00;87.50;;;;;;5054184;28;20048;-56
2022/04/16 15:26:07;;;;;;;28.35;25.65;;;17.00;87.10;;;;;;5054834;28;20037;-55
2022/04/16 15:28:34;;;;;;;29.67;26.13;;;17.10;87.00;;;;;;5055110;28;20065;-55
2022/04/16 15:31:00;;;;;;;30.50;26.02;;;17.10;86.90;;;;;;5054874;28;20044;-55
2022/04/16 15:33:28;;;;;;;29.33;26.13;;;17.20;86.00;;;;;;5054801;28;20438;-57
2022/04/16 15:35:54;;;;;;;29.83;26.23;;;17.20;85.90;;;;;;5054918;28;20048;-53
2022/04/16 15:38:22;;;;;;;28.33;25.40;;;17.10;86.00;;;;;;5054785;28;20072;-54
2022/04/16 15:40:49;;;;;;;28.23;25.20;;;17.10;85.60;;;;;;5054546;28;20052;-56
2022/04/16 15:43:16;;;;;;;28.02;25.13;;;17.10;85.40;;;;;;5054349;28;20071;-57
2022/04/16 15:45:43;;;;;;;26.45;23.58;;;16.90;85.90;;;;;;5051862;28;20407;-53
2022/04/16 15:48:10;;;;;;;27.50;24.67;;;16.90;86.50;;;;;;5054591;28;20064;-57
2022/04/16 15:50:37;;;;;;;28.70;23.65;;;17.00;85.60;;;;;;5053894;28;20044;-57
2022/04/16 15:53:03;;;;;;;26.17;23.35;;;17.10;85.80;;;;;;5054291;28;20488;-54
2022/04/16 15:55:30;;;;;;;26.38;23.58;;;17.20;85.40;;;;;;5054370;28;20087;-57
2022/04/16 15:57:57;;;;;;;25.58;22.83;;;17.20;84.60;;;;;;5052457;28;20290;-56
2022/04/16 16:00:24;;;;;;;25.48;22.88;;;17.10;84.80;;;;;;5035067;28;20048;-53
2022/04/16 16:02:51;;;;;;;27.88;22.77;;;17.10;84.70;;;;;;5034867;28;20469;-55
2022/04/16 16:05:19;;;;;;;24.73;21.95;;;17.10;84.40;;;;;;5037896;28;20045;-55
2022/04/16 16:07:46;;;;;;;23.48;20.90;;;17.10;85.50;;;;;;5051044;28;20045;-55
2022/04/16 16:10:13;;;;;;;21.98;19.50;;;17.10;83.30;;;;;;5054153;28;20043;-55
2022/04/16 16:12:39;;;;;;;21.65;19.35;;;17.10;83.50;;;;;;5034693;28;20069;-52
2022/04/16 16:15:06;;;;;;;21.23;18.92;;;17.10;83.30;;;;;;5033939;28;20033;-54
2022/04/16 16:17:33;;;;;;;21.67;18.20;;;17.00;83.10;;;;;;5041647;28;20076;-54
2022/04/16 16:20:00;;;;;;;19.73;17.65;;;17.00;83.90;;;;;;5034709;28;20092;-50
2022/04/16 16:22:28;;;;;;;20.35;17.45;;;17.20;83.70;;;;;;5034677;28;20080;-54
2022/04/16 16:24:55;;;;;;;23.27;19.33;;;17.20;83.00;;;;;;5034800;28;20092;-55
2022/04/16 16:27:22;;;;;;;21.60;17.85;;;17.70;82.20;;;;;;5034653;28;20049;-56
2022/04/16 16:29:50;;;;;;;20.23;17.75;;;18.30;81.50;;;;;;5034765;28;20041;-52
2022/04/16 16:32:17;;;;;;;20.55;18.35;;;18.60;78.90;;;;;;5033409;28;20132;-53
2022/04/16 16:34:44;;;;;;;21.50;17.55;;;18.90;77.30;;;;;;5034191;28;20044;-55
2022/04/16 16:37:10;;;;;;;19.13;16.95;;;18.90;77.10;;;;;;5016659;28;20492;-49
2022/04/16 16:39:37;;;;;;;17.85;16.05;;;18.80;76.40;;;;;;5034252;28;20487;-50
2022/04/16 16:42:04;;;;;;;18.65;16.70;;;18.90;76.70;;;;;;5034409;28;20392;-53
2022/04/16 16:44:31;;;;;;;18.30;16.48;;;19.10;76.40;;;;;;5046022;28;20045;-56
2022/04/16 16:46:58;;;;;;;20.50;18.50;;;19.20;76.40;;;;;;5052555;28;20053;-53
2022/04/16 16:49:25;;;;;;;20.60;18.02;;;19.20;75.10;;;;;;5053666;28;20052;-55
2022/04/16 16:51:51;;;;;;;19.20;17.20;;;19.40;75.70;;;;;;5052467;28;20395;-55
2022/04/16 16:54:18;;;;;;;18.60;16.88;;;19.40;75.40;;;;;;5052745;28;20040;-53
2022/04/16 16:56:45;;;;;;;19.80;16.73;;;19.50;74.10;;;;;;5041832;28;20476;-53
2022/04/16 16:59:12;;;;;;;19.05;17.05;;;19.30;75.10;;;;;;5034063;28;20042;-55
2022/04/16 17:01:44;;;;;;;18.20;16.38;;;19.30;74.00;;;;;;5033962;28;20484;-57
2022/04/16 17:07:23;;;;;;;18.80;16.60;;;19.40;74.10;;;;;;5052948;28;20467;-53
2022/04/16 17:09:43;;;;;;;19.58;17.58;;;19.40;73.80;;;;;;5052876;28;20033;-57
2022/04/16 17:12:10;;;;;;;25.88;17.15;;;19.30;74.00;;;;;;5052777;28;20061;-54
2022/04/16 17:20:08;;;;;;;20.58;17.73;;;19.50;74.30;;;;;;5052856;28;20491;-56
2022/04/16 17:22:35;;;;;;;20.35;18.13;;;19.40;74.60;;;;;;5052764;28;20037;-52
2022/04/16 17:25:01;;;;;;;21.60;19.20;;;19.30;74.60;;;;;;5052740;28;20041;-57
2022/04/16 17:27:28;;;;;;;21.80;19.58;;;19.10;75.10;;;;;;5052816;28;20119;-56
2022/04/16 17:29:55;;;;;;;22.77;20.15;;;18.80;75.60;;;;;;5052695;28;20071;-54
2022/04/16 17:32:22;;;;;;;21.92;19.73;;;18.70;76.40;;;;;;5045597;28;20033;-52
2022/04/16 17:34:49;;;;;;;22.70;20.30;;;18.70;76.10;;;;;;5033578;28;20519;-52
2022/04/16 17:37:15;;;;;;;22.17;19.83;;;18.70;76.10;;;;;;5033675;28;20416;-55
2022/04/16 17:39:42;;;;;;;23.75;19.77;;;18.70;76.30;;;;;;5033685;28;20044;-54
2022/04/16 17:42:09;;;;;;;22.20;19.90;;;18.80;76.00;;;;;;5033615;28;20442;-56
2022/04/16 17:44:37;;;;;;;22.90;20.73;;;18.80;75.60;;;;;;5033293;28;20049;-55
2022/04/16 17:47:04;;;;;;;22.88;20.58;;;18.70;76.10;;;;;;5046317;28;20185;-52
2022/04/16 17:49:31;;;;;;;23.65;21.15;;;18.50;77.00;;;;;;5033299;28;20045;-54
2022/04/16 17:51:59;;;;;;;23.67;21.10;;;18.50;77.30;;;;;;5043255;28;20053;-57
2022/04/16 17:54:30;;;;;;;23.30;20.80;;;18.30;77.70;;;;;;5033442;28;20037;-53
2022/04/16 17:56:57;;;;;;;23.45;21.05;;;18.10;78.10;;;;;;5046652;28;20162;-53
2022/04/16 17:59:25;;;;;;;24.85;21.80;;;17.80;78.80;;;;;;5052601;28;20037;-57
2022/04/16 18:01:52;;;;;;;26.65;22.92;;;17.60;79.70;;;;;;5052409;28;20475;-54
2022/04/16 18:04:19;;;;;;;27.42;24.38;;;17.30;80.40;;;;;;5052793;28;20452;-58
2022/04/16 18:06:46;;;;;;;28.50;24.63;;;17.10;81.30;;;;;;5036140;28;20045;-56
2022/04/16 18:09:13;;;;;;;28.92;25.25;;;16.90;82.30;;;;;;5037006;28;20033;-55
2022/04/16 18:11:39;;;;;;;28.60;25.55;;;16.60;83.40;;;;;;5036883;28;20041;-54
2022/04/16 18:14:07;;;;;;;28.13;25.00;;;16.50;84.10;;;;;;5037110;28;20088;-58
2022/04/16 18:16:34;;;;;;;27.90;24.75;;;16.30;84.80;;;;;;5047236;28;20057;-55
2022/04/16 18:19:01;;;;;;;27.00;24.23;;;16.00;85.70;;;;;;5056173;28;20033;-51
2022/04/16 18:21:28;;;;;;;28.60;24.00;;;15.90;86.30;;;;;;5056228;28;20496;-57
2022/04/16 18:23:56;;;;;;;28.00;24.92;;;15.80;87.20;;;;;;5056091;28;20040;-53
2022/04/16 18:26:26;;;;;;;32.55;25.77;;;15.70;87.70;;;;;;5056120;28;20052;-55
2022/04/16 18:28:53;;;;;;;27.55;24.65;;;15.50;88.60;;;;;;5036898;28;20037;-57
2022/04/16 18:31:20;;;;;;;28.58;25.55;;;15.40;88.90;;;;;;5051018;28;20491;-53
2022/04/16 18:33:47;;;;;;;28.60;25.58;;;15.30;89.70;;;;;;5056100;28;20045;-54
2022/04/16 18:36:13;;;;;;;30.27;26.83;;;15.20;90.10;;;;;;5054741;28;20381;-53
2022/04/16 18:38:40;;;;;;;37.72;28.80;;;15.10;90.40;;;;;;5055981;28;20125;-54
2022/04/16 18:41:07;;;;;;;31.08;27.88;;;15.00;90.60;;;;;;5055669;28;20061;-55
2022/04/16 18:43:34;;;;;;;32.22;27.42;;;14.90;90.60;;;;;;5055691;28;20119;-52
2022/04/16 18:46:01;;;;;;;31.67;27.98;;;14.70;90.80;;;;;;5055526;28;20053;-51
2022/04/16 18:48:28;;;;;;;31.52;28.20;;;14.60;91.20;;;;;;5055794;28;20099;-54
2022/04/16 18:50:55;;;;;;;32.28;28.58;;;14.50;91.50;;;;;;5054802;28;20040;-56
2022/04/16 18:53:22;;;;;;;35.25;31.08;;;14.40;91.80;;;;;;5055581;28;20041;-55
2022/04/16 18:55:49;;;;;;;36.28;29.77;;;14.20;92.10;;;;;;5055219;28;20064;-58
2022/04/16 18:58:16;;;;;;;35.90;30.92;;;14.10;92.40;;;;;;5055527;28;20049;-52
2022/04/16 19:09:00;;;;;;;;;;;13.70;93.10;;;;;;5055794;28;20041;-57
2022/04/16 19:11:27;;;;;;;39.55;31.00;;;13.60;93.30;;;;;;5049531;28;19982;-56
2022/04/16 19:14:15;;;;;;;37.90;31.23;;;13.60;93.20;;;;;;5050868;28;20496;-58
2022/04/16 19:16:41;;;;;;;39.03;32.80;;;13.40;93.30;;;;;;5048226;28;20038;-52
2022/04/16 19:19:09;;;;;;;39.88;32.78;;;13.40;93.30;;;;;;5055019;28;20056;-51
2022/04/16 19:21:36;;;;;;;37.72;33.58;;;13.30;93.30;;;;;;5055104;28;20392;-53
2022/04/16 19:24:03;;;;;;;40.78;33.30;;;13.30;93.20;;;;;;5055099;28;20127;-54
2022/04/16 19:26:30;;;;;;;37.38;32.78;;;13.20;93.30;;;;;;5053874;28;20045;-55
2022/04/16 19:28:57;;;;;;;37.20;32.90;;;13.20;93.40;;;;;;5054967;28;20087;-52
2022/04/16 19:31:24;;;;;;;37.58;33.53;;;13.10;93.50;;;;;;5055009;28;20061;-54
2022/04/16 19:33:51;;;;;;;39.83;33.70;;;13.00;93.50;;;;;;5055026;28;20064;-55
2022/04/16 19:36:18;;;;;;;40.28;33.50;;;13.00;93.60;;;;;;5054748;28;20072;-53
2022/04/16 19:38:44;;;;;;;42.53;33.97;;;12.90;93.70;;;;;;5055001;28;20041;-53
2022/04/16 19:41:11;;;;;;;41.25;33.17;;;12.80;93.70;;;;;;5054918;28;20037;-53
2022/04/16 19:43:38;;;;;;;41.63;33.40;;;12.80;93.90;;;;;;5041360;28;20042;-54
2022/04/16 19:46:05;;;;;;;39.13;34.42;;;12.70;93.80;;;;;;5048227;28;20456;-57
2022/04/16 19:48:32;;;;;;;39.63;33.97;;;12.70;93.80;;;;;;5054794;28;20396;-51
2022/04/16 19:51:06;;;;;;;46.15;34.00;;;12.70;93.80;;;;;;5053491;28;20499;-53
2022/04/16 19:53:32;;;;;;;40.95;34.78;;;12.70;93.90;;;;;;5054770;28;20045;-52
2022/04/16 19:55:59;;;;;;;39.55;32.35;;;12.60;93.80;;;;;;5054404;28;20052;-54
2022/04/16 19:58:26;;;;;;;40.30;33.92;;;12.60;93.90;;;;;;5054552;28;20036;-55
2022/04/16 20:00:54;;;;;;;38.63;34.22;;;12.50;93.90;;;;;;5054214;28;20041;-54
2022/04/16 20:03:21;;;;;;;43.58;34.40;;;12.40;93.90;;;;;;5054215;28;20040;-55
2022/04/16 20:05:48;;;;;;;41.90;35.22;;;12.40;93.90;;;;;;5053805;28;20032;-52
2022/04/16 20:11:01;;;;;;;45.70;38.50;;;12.40;93.90;;;;;;5054040;28;20044;-53
2022/04/16 20:13:30;;;;;;;45.65;37.65;;;12.30;93.90;;;;;;5053908;28;20099;-53
2022/04/16 20:16:00;;;;;;;42.55;35.42;;;12.30;93.90;;;;;;5053966;28;20051;-49
2022/04/16 20:18:27;;;;;;;41.95;36.10;;;12.30;94.00;;;;;;5052660;28;20052;-56
2022/04/16 20:20:54;;;;;;;39.47;35.13;;;12.30;94.00;;;;;;5053857;28;20506;-55
2022/04/16 20:23:21;;;;;;;44.28;37.13;;;12.20;94.00;;;;;;5053790;28;20056;-54
2022/04/16 20:25:48;;;;;;;42.22;37.22;;;12.20;94.10;;;;;;5054018;28;20041;-56
2022/04/16 20:28:15;;;;;;;43.83;36.03;;;12.20;94.20;;;;;;5051727;28;20053;-53
2022/04/16 20:30:42;;;;;;;40.47;35.88;;;12.10;94.10;;;;;;5053774;28;20041;-51
2022/04/16 20:33:09;;;;;;;41.42;35.13;;;12.10;94.20;;;;;;5053687;28;20049;-50
2022/04/16 20:35:36;;;;;;;47.03;36.35;;;12.00;94.00;;;;;;5052611;28;20110;-52
2022/04/16 20:38:03;;;;;;;40.03;35.55;;;12.00;94.10;;;;;;5053681;28;20067;-54
2022/04/16 20:46:01;;;;;;;41.75;35.15;;;11.90;94.10;;;;;;5053481;28;20053;-56
2022/04/16 20:48:28;;;;;;;43.92;36.88;;;11.90;94.20;;;;;;5052592;28;20045;-51
2022/04/16 20:53:40;;;;;;;42.33;35.20;;;11.70;94.40;;;;;;5046945;28;20072;-54
2022/04/16 20:56:09;;;;;;;43.78;37.47;;;11.70;94.60;;;;;;5043240;28;20171;-55
2022/04/16 20:58:36;;;;;;;42.30;35.55;;;11.60;94.50;;;;;;5034091;28;20128;-54
2022/04/16 21:01:03;;;;;;;43.85;36.88;;;11.60;94.60;;;;;;5042293;28;20037;-51
2022/04/16 21:03:29;;;;;;;45.67;35.92;;;11.60;94.60;;;;;;5053128;28;20052;-50
2022/04/16 21:05:56;;;;;;;42.20;36.47;;;11.60;94.60;;;;;;5053278;28;20083;-53
2022/04/16 21:08:23;;;;;;;43.65;38.58;;;11.50;94.60;;;;;;5053339;28;20045;-55
2022/04/16 21:10:50;;;;;;;48.35;38.15;;;11.50;94.60;;;;;;5053119;28;20053;-53
2022/04/16 21:13:17;;;;;;;43.80;37.15;;;11.50;94.60;;;;;;5053022;28;20426;-55
2022/04/16 21:15:43;;;;;;;47.35;37.35;;;11.40;94.70;;;;;;5053594;28;20064;-55
2022/04/16 21:18:10;;;;;;;45.70;37.75;;;11.40;94.70;;;;;;5053318;28;20052;-53
2022/04/16 21:20:37;;;;;;;43.22;36.78;;;11.40;94.80;;;;;;5045111;28;20099;-52
2022/04/16 21:23:04;;;;;;;46.70;37.25;;;11.40;94.80;;;;;;5032616;28;20037;-55
2022/04/16 21:25:31;;;;;;;45.17;36.78;;;11.30;94.80;;;;;;5033044;28;20075;-53
2022/04/16 21:27:57;;;;;;;42.55;36.72;;;11.30;94.90;;;;;;5051711;28;20049;-54
2022/04/16 21:30:24;;;;;;;42.17;36.80;;;11.30;95.00;;;;;;5053071;28;20479;-56
2022/04/16 21:32:51;;;;;;;45.65;37.90;;;11.20;95.00;;;;;;5051868;28;20399;-53
2022/04/16 21:35:18;;;;;;;45.55;37.53;;;11.20;95.30;;;;;;5033793;28;20080;-54
2022/04/16 21:37:44;;;;;;;45.53;37.60;;;11.10;95.30;;;;;;5033574;28;20111;-53
2022/04/16 21:40:12;;;;;;;52.60;39.60;;;11.10;95.50;;;;;;5033489;28;20038;-52
2022/04/16 21:42:38;;;;;;;49.65;39.88;;;11.10;95.60;;;;;;5033463;28;20051;-52
2022/04/16 21:45:05;;;;;;;48.08;40.15;;;11.00;95.80;;;;;;5040940;28;20080;-53
2022/04/16 21:47:32;;;;;;;46.08;40.17;;;11.00;95.90;;;;;;5033999;28;20065;-56
2022/04/16 21:49:59;;;;;;;52.00;41.47;;;10.90;95.90;;;;;;5038885;28;20094;-53
2022/04/16 21:52:26;;;;;;;47.38;40.78;;;10.90;96.00;;;;;;5051705;28;20045;-53
2022/04/16 21:54:53;;;;;;;49.88;40.72;;;10.90;96.20;;;;;;5039152;28;20045;-51
2022/04/16 21:57:20;;;;;;;49.60;41.15;;;10.80;96.30;;;;;;5052214;28;20045;-50
2022/04/16 21:59:47;;;;;;;51.38;41.35;;;10.80;96.30;;;;;;5051233;28;20486;-53
2022/04/16 22:02:14;;;;;;;55.10;43.38;;;10.80;96.40;;;;;;5050872;28;20049;-53
2022/04/16 22:04:41;;;;;;;54.50;43.17;;;10.70;96.60;;;;;;5039032;28;20037;-55
2022/04/16 22:07:07;;;;;;;52.17;44.10;;;10.70;96.90;;;;;;5031977;28;20053;-53
